sensor_id;sensor_type;location;lat;lon;timestamp;P1;durP1;ratioP1;P2;durP2;ratioP2
32321;SDS011;61553;48.994;8.940;2024-01-10T00:01:17;22.27;;;8.15;;
32321;SDS011;61553;48.994;8.940;2024-01-10T00:03:43;19.35;;;8.23;;
32321;SDS011;61553;48.994;8.940;2024-01-10T00:06:09;19.60;;;7.45;;
32321;SDS011;61553;48.994;8.940;2024-01-10T00:08:35;23.15;;;7.93;;
32321;SDS011;61553;48.994;8.940;2024-01-10T00:11:01;21.65;;;8.18;;
32321;SDS011;61553;48.994;8.940;2024-01-10T00:13:28;21.25;;;8.20;;
32321;SDS011;61553;48.994;8.940;2024-01-10T00:15:54;17.00;;;7.45;;
32321;SDS011;61553;48.994;8.940;2024-01-10T00:18:20;29.02;;;9.52;;
32321;SDS011;61553;48.994;8.940;2024-01-10T00:20:46;24.00;;;8.40;;
32321;SDS011;61553;48.994;8.940;2024-01-10T00:23:12;24.00;;;7.60;;
32321;SDS011;61553;48.994;8.940;2024-01-10T00:25:38;17.40;;;7.45;;
32321;SDS011;61553;48.994;8.940;2024-01-10T00:28:04;18.67;;;7.63;;
32321;SDS011;61553;48.994;8.940;2024-01-10T00:30:30;22.70;;;9.65;;
32321;SDS011;61553;48.994;8.940;2024-01-10T00:32:56;20.73;;;8.60;;
32321;SDS011;61553;48.994;8.940;2024-01-10T00:35:21;17.77;;;6.80;;
32321;SDS011;61553;48.994;8.940;2024-01-10T00:37:47;17.73;;;7.05;;
32321;SDS011;61553;48.994;8.940;2024-01-10T00:40:13;19.75;;;10.05;;
32321;SDS011;61553;48.994;8.940;2024-01-10T00:42:38;18.35;;;8.93;;
32321;SDS011;61553;48.994;8.940;2024-01-10T00:45:04;23.08;;;8.77;;
32321;SDS011;61553;48.994;8.940;2024-01-10T00:47:30;18.35;;;9.02;;
32321;SDS011;61553;48.994;8.940;2024-01-10T00:49:56;17.48;;;8.02;;
32321;SDS011;61553;48.994;8.940;2024-01-10T00:52:21;20.58;;;9.05;;
32321;SDS011;61553;48.994;8.940;2024-01-10T00:54:47;21.13;;;8.05;;
32321;SDS011;61553;48.994;8.940;2024-01-10T00:57:12;19.85;;;7.75;;
32321;SDS011;61553;48.994;8.940;2024-01-10T00:59:39;18.65;;;7.88;;
32321;SDS011;61553;48.994;8.940;2024-01-10T01:02:05;16.08;;;7.43;;
32321;SDS011;61553;48.994;8.940;2024-01-10T01:04:31;19.13;;;7.30;;
32321;SDS011;61553;48.994;8.940;2024-01-10T01:06:56;23.27;;;9.07;;
32321;SDS011;61553;48.994;8.940;2024-01-10T01:09:22;19.42;;;8.35;;
32321;SDS011;61553;48.994;8.940;2024-01-10T01:11:47;17.75;;;8.35;;
32321;SDS011;61553;48.994;8.940;2024-01-10T01:14:13;21.70;;;8.57;;
32321;SDS011;61553;48.994;8.940;2024-01-10T01:16:39;18.63;;;7.55;;
32321;SDS011;61553;48.994;8.940;2024-01-10T01:19:04;21.60;;;9.65;;
32321;SDS011;61553;48.994;8.940;2024-01-10T01:21:30;17.08;;;8.23;;
32321;SDS011;61553;48.994;8.940;2024-01-10T01:23:55;23.88;;;10.07;;
32321;SDS011;61553;48.994;8.940;2024-01-10T01:26:21;17.00;;;8.45;;
32321;SDS011;61553;48.994;8.940;2024-01-10T01:28:47;23.67;;;9.02;;
32321;SDS011;61553;48.994;8.940;2024-01-10T01:31:13;19.95;;;8.30;;
32321;SDS011;61553;48.994;8.940;2024-01-10T01:33:38;20.52;;;8.52;;
32321;SDS011;61553;48.994;8.940;2024-01-10T01:36:04;20.38;;;8.15;;
32321;SDS011;61553;48.994;8.940;2024-01-10T01:38:30;22.15;;;8.45;;
32321;SDS011;61553;48.994;8.940;2024-01-10T01:40:56;20.95;;;8.02;;
32321;SDS011;61553;48.994;8.940;2024-01-10T01:43:22;19.48;;;8.38;;
32321;SDS011;61553;48.994;8.940;2024-01-10T01:45:50;16.73;;;8.13;;
32321;SDS011;61553;48.994;8.940;2024-01-10T01:48:18;18.77;;;7.85;;
32321;SDS011;61553;48.994;8.940;2024-01-10T01:50:48;18.98;;;8.23;;
32321;SDS011;61553;48.994;8.940;2024-01-10T01:53:16;21.60;;;8.25;;
32321;SDS011;61553;48.994;8.940;2024-01-10T01:55:45;21.52;;;7.30;;
32321;SDS011;61553;48.994;8.940;2024-01-10T01:58:11;18.15;;;7.60;;
32321;SDS011;61553;48.994;8.940;2024-01-10T02:00:40;16.85;;;7.15;;
32321;SDS011;61553;48.994;8.940;2024-01-10T02:03:07;24.98;;;8.57;;
32321;SDS011;61553;48.994;8.940;2024-01-10T02:05:34;19.92;;;7.07;;
32321;SDS011;61553;48.994;8.940;2024-01-10T02:07:59;20.98;;;8.35;;
32321;SDS011;61553;48.994;8.940;2024-01-10T02:10:25;22.58;;;8.65;;
32321;SDS011;61553;48.994;8.940;2024-01-10T02:12:51;17.45;;;8.02;;
32321;SDS011;61553;48.994;8.940;2024-01-10T02:15:17;19.52;;;7.85;;
32321;SDS011;61553;48.994;8.940;2024-01-10T02:17:43;21.50;;;7.85;;
32321;SDS011;61553;48.994;8.940;2024-01-10T02:20:09;22.95;;;8.40;;
32321;SDS011;61553;48.994;8.940;2024-01-10T02:22:35;20.05;;;8.88;;
32321;SDS011;61553;48.994;8.940;2024-01-10T02:25:01;21.40;;;8.77;;
32321;SDS011;61553;48.994;8.940;2024-01-10T02:27:28;21.60;;;8.60;;
32321;SDS011;61553;48.994;8.940;2024-01-10T02:29:54;20.98;;;8.00;;
32321;SDS011;61553;48.994;8.940;2024-01-10T02:32:20;20.98;;;8.85;;
32321;SDS011;61553;48.994;8.940;2024-01-10T02:34:45;16.73;;;7.07;;
32321;SDS011;61553;48.994;8.940;2024-01-10T02:37:11;19.35;;;7.80;;
32321;SDS011;61553;48.994;8.940;2024-01-10T02:39:37;21.00;;;8.18;;
32321;SDS011;61553;48.994;8.940;2024-01-10T02:42:02;24.13;;;9.65;;
32321;SDS011;61553;48.994;8.940;2024-01-10T02:44:28;18.20;;;7.70;;
32321;SDS011;61553;48.994;8.940;2024-01-10T02:46:53;18.40;;;8.48;;
32321;SDS011;61553;48.994;8.940;2024-01-10T02:49:19;18.13;;;7.65;;
32321;SDS011;61553;48.994;8.940;2024-01-10T02:51:45;22.30;;;8.07;;
32321;SDS011;61553;48.994;8.940;2024-01-10T02:54:10;19.33;;;8.30;;
32321;SDS011;61553;48.994;8.940;2024-01-10T02:56:36;22.55;;;8.80;;
32321;SDS011;61553;48.994;8.940;2024-01-10T02:59:02;20.20;;;8.30;;
32321;SDS011;61553;48.994;8.940;2024-01-10T03:01:27;18.88;;;8.50;;
32321;SDS011;61553;48.994;8.940;2024-01-10T03:03:53;18.98;;;7.75;;
32321;SDS011;61553;48.994;8.940;2024-01-10T03:06:19;23.45;;;9.13;;
32321;SDS011;61553;48.994;8.940;2024-01-10T03:08:44;18.60;;;8.13;;
32321;SDS011;61553;48.994;8.940;2024-01-10T03:11:10;17.52;;;7.70;;
32321;SDS011;61553;48.994;8.940;2024-01-10T03:13:35;25.35;;;8.65;;
32321;SDS011;61553;48.994;8.940;2024-01-10T03:16:02;21.35;;;8.15;;
32321;SDS011;61553;48.994;8.940;2024-01-10T03:18:28;19.67;;;7.95;;
32321;SDS011;61553;48.994;8.940;2024-01-10T03:20:54;23.17;;;8.30;;
32321;SDS011;61553;48.994;8.940;2024-01-10T03:23:20;23.90;;;9.70;;
32321;SDS011;61553;48.994;8.940;2024-01-10T03:25:47;22.63;;;8.90;;
32321;SDS011;61553;48.994;8.940;2024-01-10T03:28:16;18.95;;;7.72;;
32321;SDS011;61553;48.994;8.940;2024-01-10T03:30:42;22.67;;;8.50;;
32321;SDS011;61553;48.994;8.940;2024-01-10T03:33:08;21.42;;;8.18;;
32321;SDS011;61553;48.994;8.940;2024-01-10T03:35:34;21.70;;;9.15;;
32321;SDS011;61553;48.994;8.940;2024-01-10T03:38:00;23.35;;;8.85;;
32321;SDS011;61553;48.994;8.940;2024-01-10T03:40:25;23.73;;;9.50;;
32321;SDS011;61553;48.994;8.940;2024-01-10T03:42:51;24.20;;;9.23;;
32321;SDS011;61553;48.994;8.940;2024-01-10T03:45:17;23.40;;;9.73;;
32321;SDS011;61553;48.994;8.940;2024-01-10T03:47:45;21.48;;;8.77;;
32321;SDS011;61553;48.994;8.940;2024-01-10T03:50:15;16.95;;;7.55;;
32321;SDS011;61553;48.994;8.940;2024-01-10T03:52:42;23.70;;;8.70;;
32321;SDS011;61553;48.994;8.940;2024-01-10T03:55:08;24.20;;;8.90;;
32321;SDS011;61553;48.994;8.940;2024-01-10T03:57:34;22.92;;;9.05;;
32321;SDS011;61553;48.994;8.940;2024-01-10T04:00:00;18.90;;;8.20;;
32321;SDS011;61553;48.994;8.940;2024-01-10T04:02:25;22.13;;;9.40;;
32321;SDS011;61553;48.994;8.940;2024-01-10T04:04:53;18.23;;;7.57;;
32321;SDS011;61553;48.994;8.940;2024-01-10T04:07:18;18.98;;;8.27;;
32321;SDS011;61553;48.994;8.940;2024-01-10T04:09:44;28.67;;;8.95;;
32321;SDS011;61553;48.994;8.940;2024-01-10T04:12:10;24.92;;;9.60;;
32321;SDS011;61553;48.994;8.940;2024-01-10T04:14:36;26.23;;;8.88;;
32321;SDS011;61553;48.994;8.940;2024-01-10T04:17:01;20.05;;;8.48;;
32321;SDS011;61553;48.994;8.940;2024-01-10T04:19:29;21.08;;;8.73;;
32321;SDS011;61553;48.994;8.940;2024-01-10T04:21:55;19.63;;;8.93;;
32321;SDS011;61553;48.994;8.940;2024-01-10T04:24:21;33.50;;;13.75;;
32321;SDS011;61553;48.994;8.940;2024-01-10T04:26:46;45.58;;;17.67;;
32321;SDS011;61553;48.994;8.940;2024-01-10T04:29:12;49.67;;;19.85;;
32321;SDS011;61553;48.994;8.940;2024-01-10T04:31:38;47.47;;;17.75;;
32321;SDS011;61553;48.994;8.940;2024-01-10T04:34:03;65.95;;;23.08;;
32321;SDS011;61553;48.994;8.940;2024-01-10T04:36:29;135.43;;;37.08;;
32321;SDS011;61553;48.994;8.940;2024-01-10T04:38:54;110.35;;;37.22;;
32321;SDS011;61553;48.994;8.940;2024-01-10T04:41:20;83.40;;;25.75;;
32321;SDS011;61553;48.994;8.940;2024-01-10T04:43:46;57.17;;;22.13;;
32321;SDS011;61553;48.994;8.940;2024-01-10T04:46:11;31.27;;;14.10;;
32321;SDS011;61553;48.994;8.940;2024-01-10T04:48:37;33.50;;;14.68;;
32321;SDS011;61553;48.994;8.940;2024-01-10T04:51:03;26.35;;;11.43;;
32321;SDS011;61553;48.994;8.940;2024-01-10T04:53:28;31.90;;;11.50;;
32321;SDS011;61553;48.994;8.940;2024-01-10T04:55:54;28.08;;;10.55;;
32321;SDS011;61553;48.994;8.940;2024-01-10T04:58:20;26.10;;;11.20;;
32321;SDS011;61553;48.994;8.940;2024-01-10T05:00:45;22.60;;;9.70;;
32321;SDS011;61553;48.994;8.940;2024-01-10T05:03:11;25.85;;;10.18;;
32321;SDS011;61553;48.994;8.940;2024-01-10T05:05:37;23.23;;;9.70;;
32321;SDS011;61553;48.994;8.940;2024-01-10T05:08:03;25.23;;;10.68;;
32321;SDS011;61553;48.994;8.940;2024-01-10T05:10:28;21.05;;;10.02;;
32321;SDS011;61553;48.994;8.940;2024-01-10T05:12:54;22.48;;;8.68;;
32321;SDS011;61553;48.994;8.940;2024-01-10T05:15:20;26.15;;;10.90;;
32321;SDS011;61553;48.994;8.940;2024-01-10T05:17:45;23.00;;;10.30;;
32321;SDS011;61553;48.994;8.940;2024-01-10T05:20:11;23.83;;;8.90;;
32321;SDS011;61553;48.994;8.940;2024-01-10T05:22:37;21.05;;;9.30;;
32321;SDS011;61553;48.994;8.940;2024-01-10T05:25:05;21.63;;;8.50;;
32321;SDS011;61553;48.994;8.940;2024-01-10T05:27:30;21.50;;;9.15;;
32321;SDS011;61553;48.994;8.940;2024-01-10T05:29:56;21.17;;;9.43;;
32321;SDS011;61553;48.994;8.940;2024-01-10T05:32:22;29.75;;;10.93;;
32321;SDS011;61553;48.994;8.940;2024-01-10T05:34:47;34.55;;;14.95;;
32321;SDS011;61553;48.994;8.940;2024-01-10T05:37:14;31.55;;;13.88;;
32321;SDS011;61553;48.994;8.940;2024-01-10T05:39:40;25.25;;;12.77;;
32321;SDS011;61553;48.994;8.940;2024-01-10T05:42:05;25.02;;;11.10;;
32321;SDS011;61553;48.994;8.940;2024-01-10T05:44:31;32.25;;;16.08;;
32321;SDS011;61553;48.994;8.940;2024-01-10T05:46:57;52.53;;;19.10;;
32321;SDS011;61553;48.994;8.940;2024-01-10T05:49:24;51.97;;;21.17;;
32321;SDS011;61553;48.994;8.940;2024-01-10T05:51:50;47.65;;;18.13;;
32321;SDS011;61553;48.994;8.940;2024-01-10T05:54:16;135.35;;;47.70;;
32321;SDS011;61553;48.994;8.940;2024-01-10T05:56:43;43.28;;;19.27;;
32321;SDS011;61553;48.994;8.940;2024-01-10T05:59:09;50.95;;;18.63;;
32321;SDS011;61553;48.994;8.940;2024-01-10T06:01:36;45.15;;;17.33;;
32321;SDS011;61553;48.994;8.940;2024-01-10T06:04:03;225.27;;;79.95;;
32321;SDS011;61553;48.994;8.940;2024-01-10T06:06:29;79.30;;;31.65;;
32321;SDS011;61553;48.994;8.940;2024-01-10T06:08:55;51.42;;;21.15;;
32321;SDS011;61553;48.994;8.940;2024-01-10T06:11:21;60.90;;;24.50;;
32321;SDS011;61553;48.994;8.940;2024-01-10T06:13:47;46.92;;;18.02;;
32321;SDS011;61553;48.994;8.940;2024-01-10T06:16:12;35.90;;;15.80;;
32321;SDS011;61553;48.994;8.940;2024-01-10T06:18:38;90.13;;;30.02;;
32321;SDS011;61553;48.994;8.940;2024-01-10T06:21:04;35.90;;;14.90;;
32321;SDS011;61553;48.994;8.940;2024-01-10T06:23:30;44.47;;;16.83;;
32321;SDS011;61553;48.994;8.940;2024-01-10T06:25:56;62.13;;;24.15;;
32321;SDS011;61553;48.994;8.940;2024-01-10T06:28:21;47.72;;;19.67;;
32321;SDS011;61553;48.994;8.940;2024-01-10T06:30:48;46.83;;;19.60;;
32321;SDS011;61553;48.994;8.940;2024-01-10T06:33:14;58.13;;;20.20;;
32321;SDS011;61553;48.994;8.940;2024-01-10T06:35:41;92.82;;;33.58;;
32321;SDS011;61553;48.994;8.940;2024-01-10T06:38:10;67.32;;;26.45;;
32321;SDS011;61553;48.994;8.940;2024-01-10T06:40:36;69.70;;;26.40;;
32321;SDS011;61553;48.994;8.940;2024-01-10T06:43:02;97.80;;;36.83;;
32321;SDS011;61553;48.994;8.940;2024-01-10T06:45:28;70.63;;;25.63;;
32321;SDS011;61553;48.994;8.940;2024-01-10T06:47:54;28.98;;;11.48;;
32321;SDS011;61553;48.994;8.940;2024-01-10T06:50:20;29.80;;;11.98;;
32321;SDS011;61553;48.994;8.940;2024-01-10T06:52:46;23.48;;;10.55;;
32321;SDS011;61553;48.994;8.940;2024-01-10T06:55:13;25.42;;;10.23;;
32321;SDS011;61553;48.994;8.940;2024-01-10T06:57:38;31.70;;;12.02;;
32321;SDS011;61553;48.994;8.940;2024-01-10T07:00:05;36.78;;;17.00;;
32321;SDS011;61553;48.994;8.940;2024-01-10T07:02:35;36.50;;;14.73;;
32321;SDS011;61553;48.994;8.940;2024-01-10T07:05:07;32.30;;;15.50;;
32321;SDS011;61553;48.994;8.940;2024-01-10T07:07:34;33.22;;;13.85;;
32321;SDS011;61553;48.994;8.940;2024-01-10T07:10:02;29.88;;;12.05;;
32321;SDS011;61553;48.994;8.940;2024-01-10T07:12:32;26.77;;;13.70;;
32321;SDS011;61553;48.994;8.940;2024-01-10T07:14:58;30.30;;;13.30;;
32321;SDS011;61553;48.994;8.940;2024-01-10T07:17:24;31.42;;;12.18;;
32321;SDS011;61553;48.994;8.940;2024-01-10T07:19:50;26.38;;;10.50;;
32321;SDS011;61553;48.994;8.940;2024-01-10T07:22:16;23.75;;;10.40;;
32321;SDS011;61553;48.994;8.940;2024-01-10T07:24:43;22.20;;;10.55;;
32321;SDS011;61553;48.994;8.940;2024-01-10T07:27:08;37.50;;;16.25;;
32321;SDS011;61553;48.994;8.940;2024-01-10T07:29:34;28.48;;;12.30;;
32321;SDS011;61553;48.994;8.940;2024-01-10T07:32:00;28.25;;;14.00;;
32321;SDS011;61553;48.994;8.940;2024-01-10T07:34:26;30.98;;;15.25;;
32321;SDS011;61553;48.994;8.940;2024-01-10T07:36:51;28.90;;;12.48;;
32321;SDS011;61553;48.994;8.940;2024-01-10T07:39:19;27.42;;;12.88;;
32321;SDS011;61553;48.994;8.940;2024-01-10T07:41:44;28.02;;;12.43;;
32321;SDS011;61553;48.994;8.940;2024-01-10T07:44:10;24.80;;;11.55;;
32321;SDS011;61553;48.994;8.940;2024-01-10T07:46:37;25.05;;;10.73;;
32321;SDS011;61553;48.994;8.940;2024-01-10T07:49:03;25.48;;;11.13;;
32321;SDS011;61553;48.994;8.940;2024-01-10T07:51:30;28.60;;;12.07;;
32321;SDS011;61553;48.994;8.940;2024-01-10T07:53:55;25.42;;;10.48;;
32321;SDS011;61553;48.994;8.940;2024-01-10T07:56:21;28.25;;;11.07;;
32321;SDS011;61553;48.994;8.940;2024-01-10T07:58:47;29.90;;;13.40;;
32321;SDS011;61553;48.994;8.940;2024-01-10T08:01:14;37.95;;;13.18;;
32321;SDS011;61553;48.994;8.940;2024-01-10T08:03:40;29.40;;;12.98;;
32321;SDS011;61553;48.994;8.940;2024-01-10T08:06:06;30.27;;;12.40;;
32321;SDS011;61553;48.994;8.940;2024-01-10T08:08:31;37.45;;;13.00;;
32321;SDS011;61553;48.994;8.940;2024-01-10T08:10:57;35.78;;;12.40;;
32321;SDS011;61553;48.994;8.940;2024-01-10T08:13:23;41.25;;;12.00;;
32321;SDS011;61553;48.994;8.940;2024-01-10T08:15:48;38.38;;;11.93;;
32321;SDS011;61553;48.994;8.940;2024-01-10T08:18:14;24.67;;;10.73;;
32321;SDS011;61553;48.994;8.940;2024-01-10T08:20:40;26.48;;;11.82;;
32321;SDS011;61553;48.994;8.940;2024-01-10T08:23:05;34.10;;;13.15;;
32321;SDS011;61553;48.994;8.940;2024-01-10T08:25:31;32.13;;;14.38;;
32321;SDS011;61553;48.994;8.940;2024-01-10T08:27:57;33.65;;;13.48;;
32321;SDS011;61553;48.994;8.940;2024-01-10T08:30:23;33.00;;;14.23;;
32321;SDS011;61553;48.994;8.940;2024-01-10T08:32:49;29.70;;;11.95;;
32321;SDS011;61553;48.994;8.940;2024-01-10T08:35:14;24.85;;;10.50;;
32321;SDS011;61553;48.994;8.940;2024-01-10T08:37:40;35.33;;;13.23;;
32321;SDS011;61553;48.994;8.940;2024-01-10T08:40:10;28.23;;;11.05;;
32321;SDS011;61553;48.994;8.940;2024-01-10T08:42:40;30.90;;;11.40;;
32321;SDS011;61553;48.994;8.940;2024-01-10T08:45:07;21.75;;;9.85;;
32321;SDS011;61553;48.994;8.940;2024-01-10T08:47:35;26.50;;;12.20;;
32321;SDS011;61553;48.994;8.940;2024-01-10T08:50:02;25.13;;;11.38;;
32321;SDS011;61553;48.994;8.940;2024-01-10T08:52:30;28.27;;;11.95;;
32321;SDS011;61553;48.994;8.940;2024-01-10T08:54:56;27.63;;;12.00;;
32321;SDS011;61553;48.994;8.940;2024-01-10T08:57:21;29.00;;;12.43;;
32321;SDS011;61553;48.994;8.940;2024-01-10T08:59:47;31.52;;;12.23;;
32321;SDS011;61553;48.994;8.940;2024-01-10T09:02:13;27.80;;;10.40;;
32321;SDS011;61553;48.994;8.940;2024-01-10T09:04:39;27.88;;;12.43;;
32321;SDS011;61553;48.994;8.940;2024-01-10T09:07:06;26.83;;;12.13;;
32321;SDS011;61553;48.994;8.940;2024-01-10T09:09:34;29.65;;;11.73;;
32321;SDS011;61553;48.994;8.940;2024-01-10T09:12:00;26.63;;;11.95;;
32321;SDS011;61553;48.994;8.940;2024-01-10T09:14:25;29.67;;;12.73;;
32321;SDS011;61553;48.994;8.940;2024-01-10T09:16:51;23.60;;;11.57;;
32321;SDS011;61553;48.994;8.940;2024-01-10T09:19:17;27.13;;;11.82;;
32321;SDS011;61553;48.994;8.940;2024-01-10T09:21:43;26.70;;;12.73;;
32321;SDS011;61553;48.994;8.940;2024-01-10T09:24:08;34.13;;;14.55;;
32321;SDS011;61553;48.994;8.940;2024-01-10T09:26:36;39.05;;;17.27;;
32321;SDS011;61553;48.994;8.940;2024-01-10T09:29:02;30.77;;;14.07;;
32321;SDS011;61553;48.994;8.940;2024-01-10T09:31:28;28.95;;;13.27;;
32321;SDS011;61553;48.994;8.940;2024-01-10T09:33:53;24.58;;;12.13;;
32321;SDS011;61553;48.994;8.940;2024-01-10T09:36:19;24.67;;;11.45;;
32321;SDS011;61553;48.994;8.940;2024-01-10T09:38:44;27.08;;;12.98;;
32321;SDS011;61553;48.994;8.940;2024-01-10T09:41:10;25.55;;;11.35;;
32321;SDS011;61553;48.994;8.940;2024-01-10T09:43:38;26.27;;;13.30;;
32321;SDS011;61553;48.994;8.940;2024-01-10T09:46:04;27.70;;;12.70;;
32321;SDS011;61553;48.994;8.940;2024-01-10T09:48:32;24.98;;;12.05;;
32321;SDS011;61553;48.994;8.940;2024-01-10T09:50:58;22.58;;;11.65;;
32321;SDS011;61553;48.994;8.940;2024-01-10T09:53:25;24.88;;;12.65;;
32321;SDS011;61553;48.994;8.940;2024-01-10T09:55:57;25.50;;;11.35;;
32321;SDS011;61553;48.994;8.940;2024-01-10T09:58:25;22.55;;;12.20;;
32321;SDS011;61553;48.994;8.940;2024-01-10T10:00:51;25.77;;;12.63;;
32321;SDS011;61553;48.994;8.940;2024-01-10T10:03:17;23.55;;;12.05;;
32321;SDS011;61553;48.994;8.940;2024-01-10T10:05:44;27.65;;;13.50;;
32321;SDS011;61553;48.994;8.940;2024-01-10T10:08:10;29.58;;;13.43;;
32321;SDS011;61553;48.994;8.940;2024-01-10T10:10:40;25.52;;;11.95;;
32321;SDS011;61553;48.994;8.940;2024-01-10T10:13:10;29.33;;;14.40;;
32321;SDS011;61553;48.994;8.940;2024-01-10T10:15:51;26.42;;;13.38;;
32321;SDS011;61553;48.994;8.940;2024-01-10T10:18:26;25.25;;;13.32;;
32321;SDS011;61553;48.994;8.940;2024-01-10T10:21:12;28.35;;;13.48;;
32321;SDS011;61553;48.994;8.940;2024-01-10T10:23:39;26.95;;;13.63;;
32321;SDS011;61553;48.994;8.940;2024-01-10T10:26:13;26.23;;;13.77;;
32321;SDS011;61553;48.994;8.940;2024-01-10T10:28:44;29.85;;;14.10;;
32321;SDS011;61553;48.994;8.940;2024-01-10T10:31:11;26.88;;;14.10;;
32321;SDS011;61553;48.994;8.940;2024-01-10T10:33:36;27.85;;;14.15;;
32321;SDS011;61553;48.994;8.940;2024-01-10T10:36:03;31.48;;;15.32;;
32321;SDS011;61553;48.994;8.940;2024-01-10T10:38:28;30.38;;;14.98;;
32321;SDS011;61553;48.994;8.940;2024-01-10T10:40:54;31.23;;;14.90;;
32321;SDS011;61553;48.994;8.940;2024-01-10T10:43:20;28.13;;;13.93;;
32321;SDS011;61553;48.994;8.940;2024-01-10T10:45:47;24.90;;;14.00;;
32321;SDS011;61553;48.994;8.940;2024-01-10T10:48:22;32.35;;;15.38;;
32321;SDS011;61553;48.994;8.940;2024-01-10T10:50:50;27.40;;;14.77;;
32321;SDS011;61553;48.994;8.940;2024-01-10T10:53:27;28.60;;;14.20;;
32321;SDS011;61553;48.994;8.940;2024-01-10T10:55:55;28.83;;;14.68;;
32321;SDS011;61553;48.994;8.940;2024-01-10T10:58:24;31.77;;;15.35;;
32321;SDS011;61553;48.994;8.940;2024-01-10T11:00:50;34.55;;;15.15;;
32321;SDS011;61553;48.994;8.940;2024-01-10T11:03:16;29.00;;;14.27;;
32321;SDS011;61553;48.994;8.940;2024-01-10T11:05:43;30.85;;;15.85;;
32321;SDS011;61553;48.994;8.940;2024-01-10T11:08:11;27.60;;;14.93;;
32321;SDS011;61553;48.994;8.940;2024-01-10T11:10:39;31.15;;;15.80;;
32321;SDS011;61553;48.994;8.940;2024-01-10T11:21:14;30.27;;;14.65;;
32321;SDS011;61553;48.994;8.940;2024-01-10T11:24:03;31.30;;;14.85;;
32321;SDS011;61553;48.994;8.940;2024-01-10T11:26:30;31.13;;;14.68;;
32321;SDS011;61553;48.994;8.940;2024-01-10T11:28:58;35.78;;;15.80;;
32321;SDS011;61553;48.994;8.940;2024-01-10T11:31:29;29.70;;;14.18;;
32321;SDS011;61553;48.994;8.940;2024-01-10T11:34:02;28.98;;;13.38;;
32321;SDS011;61553;48.994;8.940;2024-01-10T11:36:28;30.42;;;14.68;;
32321;SDS011;61553;48.994;8.940;2024-01-10T11:38:56;32.28;;;15.80;;
32321;SDS011;61553;48.994;8.940;2024-01-10T11:46:46;27.52;;;14.18;;
32321;SDS011;61553;48.994;8.940;2024-01-10T11:49:17;35.90;;;15.98;;
32321;SDS011;61553;48.994;8.940;2024-01-10T11:52:17;45.70;;;19.45;;
32321;SDS011;61553;48.994;8.940;2024-01-10T11:57:14;31.23;;;15.05;;
32321;SDS011;61553;48.994;8.940;2024-01-10T11:59:43;35.38;;;15.25;;
32321;SDS011;61553;48.994;8.940;2024-01-10T12:02:11;40.40;;;17.17;;
32321;SDS011;61553;48.994;8.940;2024-01-10T12:04:37;32.83;;;15.63;;
32321;SDS011;61553;48.994;8.940;2024-01-10T12:07:03;35.78;;;15.23;;
32321;SDS011;61553;48.994;8.940;2024-01-10T12:09:31;37.08;;;15.10;;
32321;SDS011;61553;48.994;8.940;2024-01-10T12:11:57;33.25;;;15.35;;
32321;SDS011;61553;48.994;8.940;2024-01-10T12:14:23;31.80;;;15.45;;
32321;SDS011;61553;48.994;8.940;2024-01-10T12:16:53;31.02;;;15.50;;
32321;SDS011;61553;48.994;8.940;2024-01-10T12:19:18;46.10;;;18.60;;
32321;SDS011;61553;48.994;8.940;2024-01-10T12:21:44;35.83;;;15.93;;
32321;SDS011;61553;48.994;8.940;2024-01-10T12:24:09;33.20;;;14.82;;
32321;SDS011;61553;48.994;8.940;2024-01-10T12:26:35;38.45;;;17.15;;
32321;SDS011;61553;48.994;8.940;2024-01-10T12:29:01;40.70;;;17.63;;
32321;SDS011;61553;48.994;8.940;2024-01-10T12:31:31;36.60;;;16.02;;
32321;SDS011;61553;48.994;8.940;2024-01-10T12:33:57;33.83;;;16.23;;
32321;SDS011;61553;48.994;8.940;2024-01-10T12:36:24;31.55;;;15.25;;
32321;SDS011;61553;48.994;8.940;2024-01-10T12:38:50;41.65;;;16.58;;
32321;SDS011;61553;48.994;8.940;2024-01-10T12:41:16;36.15;;;17.08;;
32321;SDS011;61553;48.994;8.940;2024-01-10T12:43:54;36.72;;;15.93;;
32321;SDS011;61553;48.994;8.940;2024-01-10T12:46:20;34.75;;;17.33;;
32321;SDS011;61553;48.994;8.940;2024-01-10T12:48:57;42.05;;;17.60;;
32321;SDS011;61553;48.994;8.940;2024-01-10T12:51:33;36.08;;;18.17;;
32321;SDS011;61553;48.994;8.940;2024-01-10T12:54:01;34.92;;;17.25;;
32321;SDS011;61553;48.994;8.940;2024-01-10T12:56:29;37.33;;;15.55;;
32321;SDS011;61553;48.994;8.940;2024-01-10T12:58:55;31.17;;;15.75;;
32321;SDS011;61553;48.994;8.940;2024-01-10T13:01:22;35.00;;;16.55;;
32321;SDS011;61553;48.994;8.940;2024-01-10T13:03:48;33.08;;;16.13;;
32321;SDS011;61553;48.994;8.940;2024-01-10T13:06:15;34.40;;;18.08;;
32321;SDS011;61553;48.994;8.940;2024-01-10T13:08:44;36.05;;;16.98;;
32321;SDS011;61553;48.994;8.940;2024-01-10T13:11:11;34.55;;;16.27;;
32321;SDS011;61553;48.994;8.940;2024-01-10T13:13:39;32.60;;;16.70;;
32321;SDS011;61553;48.994;8.940;2024-01-10T13:16:05;30.83;;;16.02;;
32321;SDS011;61553;48.994;8.940;2024-01-10T13:18:31;42.08;;;17.85;;
32321;SDS011;61553;48.994;8.940;2024-01-10T13:20:57;31.05;;;14.90;;
32321;SDS011;61553;48.994;8.940;2024-01-10T13:23:22;37.40;;;15.50;;
32321;SDS011;61553;48.994;8.940;2024-01-10T13:25:49;32.50;;;17.27;;
32321;SDS011;61553;48.994;8.940;2024-01-10T13:28:15;35.85;;;17.10;;
32321;SDS011;61553;48.994;8.940;2024-01-10T13:30:41;33.97;;;17.10;;
32321;SDS011;61553;48.994;8.940;2024-01-10T13:33:08;38.10;;;17.42;;
32321;SDS011;61553;48.994;8.940;2024-01-10T13:35:35;35.72;;;17.00;;
32321;SDS011;61553;48.994;8.940;2024-01-10T13:38:01;31.15;;;17.33;;
32321;SDS011;61553;48.994;8.940;2024-01-10T13:40:26;36.33;;;16.83;;
32321;SDS011;61553;48.994;8.940;2024-01-10T13:42:52;36.20;;;16.67;;
32321;SDS011;61553;48.994;8.940;2024-01-10T13:45:19;38.03;;;17.17;;
32321;SDS011;61553;48.994;8.940;2024-01-10T13:47:46;40.28;;;17.60;;
32321;SDS011;61553;48.994;8.940;2024-01-10T13:50:14;36.08;;;17.10;;
32321;SDS011;61553;48.994;8.940;2024-01-10T13:52:40;35.38;;;17.30;;
32321;SDS011;61553;48.994;8.940;2024-01-10T13:55:07;39.17;;;16.45;;
32321;SDS011;61553;48.994;8.940;2024-01-10T13:57:33;35.20;;;15.65;;
32321;SDS011;61553;48.994;8.940;2024-01-10T13:59:59;38.45;;;17.58;;
32321;SDS011;61553;48.994;8.940;2024-01-10T14:02:25;36.60;;;17.40;;
32321;SDS011;61553;48.994;8.940;2024-01-10T14:04:52;41.20;;;17.60;;
32321;SDS011;61553;48.994;8.940;2024-01-10T14:07:19;37.33;;;17.45;;
32321;SDS011;61553;48.994;8.940;2024-01-10T14:09:45;33.80;;;16.83;;
32321;SDS011;61553;48.994;8.940;2024-01-10T14:12:11;37.75;;;17.48;;
32321;SDS011;61553;48.994;8.940;2024-01-10T14:14:37;33.28;;;16.95;;
32321;SDS011;61553;48.994;8.940;2024-01-10T14:17:03;37.92;;;17.92;;
32321;SDS011;61553;48.994;8.940;2024-01-10T14:19:29;36.35;;;17.80;;
32321;SDS011;61553;48.994;8.940;2024-01-10T14:21:55;34.30;;;16.95;;
32321;SDS011;61553;48.994;8.940;2024-01-10T14:24:21;29.67;;;14.57;;
32321;SDS011;61553;48.994;8.940;2024-01-10T14:26:46;33.60;;;16.02;;
32321;SDS011;61553;48.994;8.940;2024-01-10T14:29:12;36.08;;;17.33;;
32321;SDS011;61553;48.994;8.940;2024-01-10T14:31:38;34.28;;;17.42;;
32321;SDS011;61553;48.994;8.940;2024-01-10T14:34:04;33.97;;;17.25;;
32321;SDS011;61553;48.994;8.940;2024-01-10T14:36:31;41.28;;;18.60;;
32321;SDS011;61553;48.994;8.940;2024-01-10T14:38:56;32.92;;;17.75;;